createdAt,value
2022-11-16T06:47:03.164Z,42.22
2022-11-16T06:49:31.028Z,42.22
2022-11-16T06:52:00.853Z,42.50
2022-11-16T06:54:27.586Z,42.70
2022-11-16T06:56:54.258Z,39.10
2022-11-16T06:59:21.055Z,42.30
2022-11-16T07:01:47.507Z,38.95
2022-11-16T07:04:14.225Z,39.40
2022-11-16T07:06:45.219Z,36.85
2022-11-16T07:09:14.332Z,37.85
2022-11-16T07:11:40.774Z,38.50
2022-11-16T07:14:07.267Z,39.83
2022-11-16T07:16:35.871Z,38.47
2022-11-16T07:19:03.555Z,35.55
2022-11-16T07:21:31.824Z,38.33
2022-11-16T07:24:01.137Z,37.28
2022-11-16T07:26:28.913Z,36.42
2022-11-16T07:29:04.747Z,35.85
2022-11-16T07:31:32.602Z,33.92
2022-11-16T07:34:17.150Z,32.17
2022-11-16T07:37:05.922Z,34.03
2022-11-16T07:39:32.552Z,34.53
2022-11-16T07:41:58.704Z,34.50
2022-11-16T07:44:28.903Z,33.63
2022-11-16T07:47:05.447Z,35.47
2022-11-16T07:49:33.382Z,31.85
2022-11-16T07:52:10.258Z,31.13
2022-11-16T07:54:43.736Z,31.77
2022-11-16T07:57:10.206Z,34.35
2022-11-16T07:59:39.094Z,33.88
2022-11-16T08:02:05.842Z,34.05
2022-11-16T08:04:32.392Z,30.70
2022-11-16T08:06:58.925Z,32.45
2022-11-16T08:09:28.637Z,32.70
2022-11-16T08:11:55.035Z,32.60
2022-11-16T08:14:22.608Z,32.22
2022-11-16T08:16:50.000Z,33.78
2022-11-16T08:19:17.050Z,36.58
2022-11-16T08:21:45.824Z,31.52
2022-11-16T08:24:13.519Z,33.05
2022-11-16T08:26:41.947Z,32.17
2022-11-16T08:29:11.622Z,33.45
2022-11-16T08:31:40.602Z,31.23
2022-11-16T08:34:11.602Z,33.88
2022-11-16T08:36:41.237Z,32.10
2022-11-16T08:39:07.896Z,32.15
2022-11-16T08:41:36.015Z,31.88
2022-11-16T08:44:02.224Z,33.90
2022-11-16T08:46:30.211Z,32.92
2022-11-16T08:49:06.836Z,33.90
2022-11-16T08:51:33.885Z,33.00
2022-11-16T08:54:07.612Z,33.53
2022-11-16T08:56:36.438Z,32.67
2022-11-16T08:59:06.583Z,34.63
2022-11-16T09:01:33.109Z,34.72
2022-11-16T09:04:00.277Z,31.67
2022-11-16T09:06:29.160Z,31.38
2022-11-16T09:08:58.452Z,32.15
2022-11-16T09:11:26.163Z,31.10
2022-11-16T09:13:54.444Z,32.95
2022-11-16T09:16:21.526Z,32.97
2022-11-16T09:18:49.440Z,30.98
2022-11-16T09:21:24.091Z,31.48
2022-11-16T09:23:50.568Z,30.50
2022-11-16T09:26:20.938Z,31.63
2022-11-16T09:28:48.518Z,30.33
2022-11-16T09:31:20.295Z,31.23
2022-11-16T09:33:52.716Z,33.03
2022-11-16T09:36:22.487Z,32.92
2022-11-16T09:42:08.708Z,34.20
2022-11-16T09:44:38.172Z,31.27
2022-11-16T09:47:22.043Z,33.03
2022-11-16T09:50:01.544Z,32.17
2022-11-16T09:52:41.490Z,32.45
2022-11-16T09:55:32.630Z,34.58
2022-11-16T09:58:03.516Z,30.73
2022-11-16T10:00:31.287Z,34.35
2022-11-16T10:03:27.072Z,34.60
2022-11-16T10:06:03.684Z,32.17
2022-11-16T10:08:45.922Z,34.00
2022-11-16T10:11:38.957Z,31.98
2022-11-16T10:14:33.190Z,32.15
2022-11-16T10:17:37.617Z,33.15
2022-11-16T10:20:30.470Z,32.55
2022-11-16T10:23:26.185Z,32.22
2022-11-16T10:25:56.609Z,30.13
2022-11-16T10:28:55.421Z,31.40
2022-11-16T10:31:45.090Z,31.00
2022-11-16T10:34:20.829Z,29.13
2022-11-16T10:36:49.872Z,32.72
2022-11-16T10:39:20.379Z,29.30
2022-11-16T10:41:51.098Z,28.58
2022-11-16T10:44:36.659Z,30.20
2022-11-16T10:47:06.325Z,30.55
2022-11-16T10:49:49.253Z,30.10
2022-11-16T10:52:15.389Z,31.13
2022-11-16T10:54:44.468Z,27.52
2022-11-16T10:57:14.215Z,29.33
2022-11-16T10:59:46.638Z,28.23
2022-11-16T11:02:24.685Z,27.90
2022-11-16T11:05:20.761Z,30.45
2022-11-16T11:07:59.986Z,28.48
2022-11-16T11:10:32.376Z,26.73
2022-11-16T11:13:08.083Z,27.15
2022-11-16T11:15:35.022Z,29.50
2022-11-16T11:18:10.741Z,26.27
2022-11-16T11:20:44.303Z,25.75
2022-11-16T11:23:25.778Z,28.00
2022-11-16T11:26:00.315Z,27.27
2022-11-16T11:28:38.510Z,22.77
2022-11-16T11:31:26.062Z,23.10
2022-11-16T11:33:55.669Z,25.25
2022-11-16T11:36:38.664Z,22.52
2022-11-16T11:39:12.519Z,21.73
2022-11-16T11:41:42.702Z,21.42
2022-11-16T11:44:20.781Z,22.00
2022-11-16T11:47:42.177Z,19.48
2022-11-16T11:49:50.053Z,20.10
2022-11-16T11:52:26.658Z,20.58
2022-11-16T11:54:55.780Z,18.80
2022-11-16T11:57:23.947Z,20.17
2022-11-16T11:59:53.081Z,19.92
2022-11-16T12:02:42.685Z,18.80
2022-11-16T12:05:27.246Z,18.77
2022-11-16T12:08:15.090Z,18.88
2022-11-16T12:10:51.363Z,17.00
2022-11-16T12:13:34.724Z,18.60
2022-11-16T12:16:19.814Z,18.48
2022-11-16T12:19:17.008Z,18.77
2022-11-16T12:21:53.562Z,17.83
2022-11-16T12:24:43.389Z,17.45
2022-11-16T12:27:34.665Z,18.60
2022-11-16T12:30:17.499Z,18.42
2022-11-16T12:33:00.208Z,18.50
2022-11-16T12:35:41.834Z,17.65
2022-11-16T12:38:31.733Z,17.50
2022-11-16T12:41:18.725Z,15.65
2022-11-16T12:43:49.882Z,16.48
2022-11-16T12:46:34.796Z,17.08
2022-11-16T12:49:34.987Z,16.40
2022-11-16T12:52:25.441Z,17.08
2022-11-16T12:55:28.127Z,17.02
2022-11-16T12:58:43.884Z,16.92
2022-11-16T13:01:20.312Z,16.23
2022-11-16T13:03:54.253Z,14.88
2022-11-16T13:06:28.829Z,16.02
2022-11-16T13:09:07.486Z,15.60
2022-11-16T13:11:42.434Z,15.60
2022-11-16T13:14:19.508Z,17.30
2022-11-16T13:16:46.501Z,15.15
2022-11-16T13:19:14.974Z,16.45
2022-11-16T13:22:03.693Z,15.90
2022-11-16T13:24:49.015Z,16.27
2022-11-16T13:27:26.674Z,16.92
2022-11-16T13:30:03.513Z,15.30
2022-11-16T13:32:32.607Z,14.75
2022-11-16T13:35:00.592Z,15.07
2022-11-16T13:37:39.002Z,16.15
2022-11-16T13:40:05.147Z,14.73
2022-11-16T13:42:38.486Z,15.93
2022-11-16T13:45:18.452Z,16.15
2022-11-16T13:47:56.873Z,14.15
2022-11-16T13:50:31.859Z,13.48
2022-11-16T13:53:57.671Z,12.77
2022-11-16T13:56:21.800Z,13.70
2022-11-16T13:58:52.401Z,15.32
2022-11-16T14:01:19.112Z,13.82
2022-11-16T14:03:47.754Z,15.23
2022-11-16T14:06:13.793Z,13.18
2022-11-16T14:08:39.872Z,12.82
2022-11-16T14:11:33.599Z,11.30
2022-11-16T14:14:01.709Z,11.40
2022-11-16T14:16:29.161Z,12.55
2022-11-16T14:18:58.493Z,11.98
2022-11-16T14:22:07.457Z,12.00
2022-11-16T14:24:41.018Z,11.13
2022-11-16T14:27:17.408Z,11.80
2022-11-16T14:29:46.213Z,12.18
2022-11-16T14:32:20.944Z,10.23
2022-11-16T14:34:50.418Z,11.00
2022-11-16T14:37:22.258Z,10.73
2022-11-16T14:39:50.510Z,10.50
2022-11-16T14:42:21.800Z,12.15
2022-11-16T14:44:49.814Z,11.40
2022-11-16T14:47:23.580Z,12.60
2022-11-16T14:49:49.704Z,12.63
2022-11-16T14:52:18.911Z,11.20
2022-11-16T14:54:57.019Z,11.40
2022-11-16T14:57:24.418Z,16.63
2022-11-16T15:00:26.625Z,11.40
2022-11-16T15:03:00.862Z,12.82
2022-11-16T15:05:32.947Z,12.57
2022-11-16T15:08:00.262Z,12.63
2022-11-16T15:10:29.106Z,13.75
2022-11-16T15:12:56.963Z,13.40
2022-11-16T15:15:31.247Z,14.23
2022-11-16T15:18:00.300Z,12.43
2022-11-16T15:20:35.105Z,14.23
2022-11-16T15:23:02.485Z,13.18
2022-11-16T15:25:33.177Z,13.52
2022-11-16T15:28:18.328Z,12.98
2022-11-16T15:30:58.861Z,12.10
2022-11-16T15:33:36.446Z,12.13
2022-11-16T15:36:32.376Z,12.70
2022-11-16T15:39:00.548Z,12.07
2022-11-16T15:41:29.381Z,12.52
2022-11-16T15:44:15.568Z,12.30
2022-11-16T15:46:45.798Z,13.15
2022-11-16T15:49:49.848Z,12.75
2022-11-16T15:52:50.384Z,13.13
2022-11-16T15:55:28.982Z,13.32
2022-11-16T15:58:19.034Z,13.52
2022-11-16T16:00:48.445Z,12.93
2022-11-16T16:03:22.534Z,12.77
2022-11-16T16:05:49.503Z,12.30
2022-11-16T16:08:35.568Z,11.60
2022-11-16T16:11:09.561Z,12.85
2022-11-16T16:13:42.378Z,12.63
2022-11-16T16:16:30.207Z,13.18
2022-11-16T16:19:02.634Z,11.68
2022-11-16T16:21:46.946Z,11.57
2022-11-16T16:24:35.060Z,11.88
2022-11-16T16:27:01.168Z,12.48
2022-11-16T16:29:28.520Z,11.77
2022-11-16T16:31:56.030Z,10.90
2022-11-16T16:34:22.165Z,10.55
2022-11-16T16:36:48.276Z,11.10
2022-11-16T16:39:14.394Z,10.73
2022-11-16T16:41:40.505Z,10.88
2022-11-16T16:44:13.948Z,10.90
2022-11-16T16:46:40.172Z,11.95
2022-11-16T16:49:06.612Z,11.88
2022-11-16T16:51:32.727Z,12.27
2022-11-16T16:53:58.848Z,12.23
2022-11-16T16:56:25.058Z,11.95
2022-11-16T16:58:51.186Z,11.13
2022-11-16T17:01:17.499Z,10.00
2022-11-16T17:03:43.641Z,10.60
2022-11-16T17:06:09.761Z,9.82
2022-11-16T17:08:37.389Z,9.65
2022-11-16T17:11:03.840Z,9.07
2022-11-16T17:13:30.221Z,10.05
2022-11-16T17:15:56.331Z,9.65
2022-11-16T17:18:23.056Z,9.75
2022-11-16T17:20:49.165Z,9.75
2022-11-16T17:23:15.503Z,8.32
2022-11-16T17:25:41.610Z,8.15
2022-11-16T17:28:07.734Z,8.50
2022-11-16T17:30:33.851Z,8.57
2022-11-16T17:33:00.030Z,7.78
2022-11-16T17:35:26.146Z,7.68
2022-11-16T17:37:52.369Z,7.50
2022-11-16T17:40:18.561Z,7.25
2022-11-16T17:42:44.667Z,7.97
2022-11-16T17:45:12.033Z,6.95
2022-11-16T17:47:39.190Z,7.25
2022-11-16T17:50:05.678Z,7.40
2022-11-16T17:52:31.886Z,7.30
2022-11-16T17:54:57.998Z,6.63
2022-11-16T17:57:24.114Z,7.00
2022-11-16T17:59:50.252Z,8.23
2022-11-16T18:02:16.377Z,8.00
2022-11-16T18:04:49.615Z,8.10
2022-11-16T18:07:17.160Z,8.27
2022-11-16T18:09:43.374Z,8.13
2022-11-16T18:12:09.475Z,7.05
2022-11-16T18:14:35.572Z,7.53
2022-11-16T18:17:01.880Z,7.32
2022-11-16T18:19:28.055Z,8.07
2022-11-16T18:21:54.269Z,7.75
2022-11-16T18:24:20.401Z,7.68
2022-11-16T18:26:46.534Z,8.15
2022-11-16T18:29:15.925Z,8.05
2022-11-16T18:31:42.315Z,7.75
2022-11-16T18:34:08.660Z,7.72
2022-11-16T18:36:34.840Z,8.30
2022-11-16T18:39:00.964Z,8.45
2022-11-16T18:41:29.843Z,8.15
2022-11-16T18:44:00.423Z,8.68
2022-11-16T18:46:35.006Z,7.88
2022-11-16T18:49:01.169Z,8.20
2022-11-16T18:51:28.309Z,8.02
2022-11-16T18:53:55.363Z,8.13
2022-11-16T18:56:22.455Z,7.53
2022-11-16T18:58:51.494Z,8.45
2022-11-16T19:01:21.151Z,7.93
2022-11-16T19:03:47.427Z,7.70
2022-11-16T19:06:15.684Z,8.13
2022-11-16T19:08:42.703Z,8.55
2022-11-16T19:11:14.139Z,6.97
2022-11-16T19:13:41.855Z,7.05
2022-11-16T19:16:09.314Z,7.65
2022-11-16T19:18:36.562Z,8.18
2022-11-16T19:21:13.313Z,7.90
2022-11-16T19:23:43.931Z,7.85
2022-11-16T19:26:12.881Z,7.70
2022-11-16T19:28:40.746Z,7.95
2022-11-16T19:31:27.580Z,7.75
2022-11-16T19:34:02.258Z,7.47
2022-11-16T19:36:31.445Z,8.00
2022-11-16T19:38:57.657Z,8.10
2022-11-16T19:41:24.761Z,7.93
2022-11-16T19:43:53.241Z,8.50
2022-11-16T19:46:24.285Z,8.02
2022-11-16T19:48:51.089Z,8.73
2022-11-16T19:51:23.219Z,8.00
2022-11-16T19:53:49.831Z,8.77
2022-11-16T19:56:18.483Z,9.38
2022-11-16T19:58:45.160Z,8.52
2022-11-16T20:01:17.256Z,8.35
2022-11-16T20:03:43.581Z,8.43
2022-11-16T20:06:14.982Z,9.00
2022-11-16T20:08:42.618Z,8.85
2022-11-16T20:11:23.191Z,8.90
2022-11-16T20:13:50.897Z,8.32
2022-11-16T20:16:18.459Z,9.65
2022-11-16T20:18:45.771Z,9.82
2022-11-16T20:21:17.181Z,8.43
2022-11-16T20:23:45.634Z,10.07
2022-11-16T20:26:13.571Z,9.60
2022-11-16T20:28:41.846Z,8.82
2022-11-16T20:31:10.052Z,8.60
2022-11-16T20:33:36.761Z,9.73
2022-11-16T20:36:05.268Z,9.50
2022-11-16T20:38:36.679Z,9.48
2022-11-16T20:41:14.102Z,9.43
2022-11-16T20:43:41.306Z,8.82
2022-11-16T20:46:09.455Z,8.68
2022-11-16T20:48:36.200Z,9.70
2022-11-16T20:51:02.428Z,9.05
2022-11-16T20:53:28.745Z,9.15
2022-11-16T20:55:55.456Z,8.85
